Noshiro, Japan
Current Conditions -  °F | °C
As of 5:41 PM on Tuesday 21 Oct 2014 (Local Time) from RJSR Reporting Station
Rain Showers Rain Showers  
Wind Chill: 55°   Ceiling: 1000
Heat Index: 55°   Visibility: 0.93mi
Dew Point: 55°   Wind: 2mph
Humidity: 100%   Direction: NA
Pressure: 29.94"   Gusts: NA
Location:  40.2°N, 140.03°E
Report Text: RJSR 210841Z VRB02KT 1500 R11/0900VP1800U -SHRA BCFG BR FEW001 SCT003 BKN010 13/13 Q1014 RMK 1ST001 3ST003 6ST010 A2996
Loading
Personal Weather Stations






























Interactive Weather Map
Tropical Storm Tracking
New forecast layout! Learn more

10-Day Weather Forecast

Advertisements
Track Severe Weather on mobile